Time;durP1;ratioP1;P1;durP2;ratioP2;P2;SDS_P1;SDS_P2;PMS_P1;PMS_P2;Temp;Humidity;BMP_temperature;BMP_pressure;BME280_temperature;BME280_humidity;BME280_pressure;Samples;Min_cycle;Max_cycle;Signal;HPM_P1;HPM_P2
2023/07/19 00:00:10;;;;;;;6.40;5.80;;;27.20;56.70;;;;;;5061558;28;20621;-49
2023/07/19 00:02:36;;;;;;;6.03;5.43;;;27.10;56.70;;;;;;5071546;28;20219;-49
2023/07/19 00:05:02;;;;;;;5.17;4.73;;;27.10;56.90;;;;;;5082848;28;20578;-48
2023/07/19 00:07:27;;;;;;;7.17;5.63;;;27.00;56.70;;;;;;5071259;28;20183;-48
2023/07/19 00:09:53;;;;;;;10.63;5.43;;;27.00;56.20;;;;;;5076546;28;20258;-50
2023/07/19 00:12:18;;;;;;;7.00;5.50;;;26.90;57.10;;;;;;5077954;28;20228;-48
2023/07/19 00:14:44;;;;;;;5.80;5.10;;;26.70;57.60;;;;;;5067553;28;20199;-47
2023/07/19 00:17:09;;;;;;;6.20;5.60;;;26.50;58.20;;;;;;5072019;28;20186;-48
2023/07/19 00:19:35;;;;;;;7.03;6.33;;;26.60;58.00;;;;;;5080296;28;20731;-49
2023/07/19 00:22:01;;;;;;;7.70;5.80;;;26.70;57.60;;;;;;5071949;28;20418;-49
2023/07/19 00:24:26;;;;;;;6.97;4.87;;;26.80;57.30;;;;;;5070406;28;20256;-49
2023/07/19 00:26:52;;;;;;;8.80;6.27;;;26.80;57.30;;;;;;5076474;28;20195;-51
2023/07/19 00:29:18;;;;;;;10.37;5.60;;;26.80;57.10;;;;;;5070883;28;20682;-48
2023/07/19 00:31:43;;;;;;;8.17;5.90;;;26.90;56.80;;;;;;5068854;28;20183;-49
2023/07/19 00:34:09;;;;;;;5.23;4.80;;;27.00;56.40;;;;;;5069122;28;20188;-48
2023/07/19 00:36:35;;;;;;;5.67;5.17;;;27.10;56.40;;;;;;5071249;28;20187;-49
2023/07/19 00:39:01;;;;;;;6.97;5.83;;;27.00;56.40;;;;;;5071897;28;20199;-50
2023/07/19 00:41:26;;;;;;;6.93;6.33;;;27.00;56.20;;;;;;5077790;28;20324;-48
2023/07/19 00:43:52;;;;;;;6.37;5.77;;;27.10;56.20;;;;;;5080131;28;20274;-49
2023/07/19 00:46:19;;;;;;;5.83;5.23;;;27.10;56.30;;;;;;5069642;28;20195;-48
2023/07/19 00:48:45;;;;;;;5.93;5.43;;;27.10;56.20;;;;;;5075634;28;21295;-48
2023/07/19 00:51:10;;;;;;;11.43;6.13;;;27.10;56.00;;;;;;5070734;28;20456;-51
2023/07/19 00:53:39;;;;;;;6.00;5.50;;;27.00;56.20;;;;;;5076367;28;20195;-49
2023/07/19 00:56:04;;;;;;;5.77;5.20;;;26.90;56.60;;;;;;5076475;28;20191;-49
2023/07/19 00:58:31;;;;;;;6.07;5.47;;;26.90;56.50;;;;;;5077191;28;20459;-50
2023/07/19 01:00:57;;;;;;;6.57;5.97;;;27.00;56.20;;;;;;5080395;28;20554;-48
2023/07/19 01:03:23;;;;;;;6.30;5.73;;;27.00;56.20;;;;;;5075802;28;20861;-47
2023/07/19 01:05:49;;;;;;;5.40;4.90;;;27.00;56.20;;;;;;5071417;28;20434;-48
2023/07/19 01:08:15;;;;;;;8.27;5.60;;;27.00;55.80;;;;;;5064459;28;20232;-49
2023/07/19 01:10:41;;;;;;;5.87;5.33;;;27.10;55.60;;;;;;5069860;28;20645;-48
2023/07/19 01:13:09;;;;;;;5.33;4.83;;;27.10;55.70;;;;;;5060359;28;20495;-48
2023/07/19 01:15:40;;;;;;;7.07;5.40;;;27.10;55.80;;;;;;5049956;28;20500;-49
2023/07/19 01:18:06;;;;;;;6.43;5.70;;;27.10;55.70;;;;;;5053048;28;20440;-49
2023/07/19 01:20:31;;;;;;;6.53;5.93;;;27.10;55.40;;;;;;5052117;28;20478;-48
2023/07/19 01:22:57;;;;;;;5.67;5.20;;;27.20;55.40;;;;;;5064021;28;20517;-49
2023/07/19 01:25:23;;;;;;;6.63;5.60;;;27.20;55.40;;;;;;5059333;28;20253;-48
2023/07/19 01:27:49;;;;;;;6.80;6.17;;;27.20;55.30;;;;;;5051973;28;20267;-48
2023/07/19 01:30:15;;;;;;;6.13;5.53;;;27.20;55.90;;;;;;5057573;28;20472;-48
2023/07/19 01:32:41;;;;;;;9.80;6.43;;;27.10;55.30;;;;;;5059880;28;20871;-48
2023/07/19 01:35:07;;;;;;;7.10;6.23;;;27.10;55.20;;;;;;5053839;28;20288;-48
2023/07/19 01:37:32;;;;;;;6.27;5.67;;;27.20;55.30;;;;;;5060131;28;20203;-48
2023/07/19 01:40:01;;;;;;;6.17;5.27;;;27.10;55.50;;;;;;5059620;28;21017;-49
2023/07/19 01:42:26;;;;;;;7.23;5.10;;;27.10;55.50;;;;;;5048973;28;20331;-47
2023/07/19 01:44:53;;;;;;;6.70;5.17;;;27.10;55.60;;;;;;5048274;28;20529;-48
2023/07/19 01:47:19;;;;;;;5.60;5.10;;;26.90;55.80;;;;;;5062944;28;20211;-47
2023/07/19 01:49:44;;;;;;;8.73;6.77;;;26.90;55.80;;;;;;5049670;28;20436;-48
2023/07/19 01:52:10;;;;;;;6.73;6.03;;;27.00;55.80;;;;;;5075216;28;20187;-49
2023/07/19 01:54:35;;;;;;;8.70;6.53;;;26.90;55.80;;;;;;5056689;28;20191;-47
2023/07/19 01:57:01;;;;;;;6.63;5.97;;;26.90;56.10;;;;;;5065246;28;20271;-49
2023/07/19 01:59:27;;;;;;;7.40;6.43;;;26.80;56.30;;;;;;5067548;28;20187;-49
2023/07/19 02:01:53;;;;;;;6.03;5.53;;;26.80;56.20;;;;;;5062478;28;20231;-52
2023/07/19 02:04:19;;;;;;;11.03;5.83;;;26.80;56.20;;;;;;5060610;28;20192;-48
2023/07/19 02:06:44;;;;;;;5.50;5.00;;;26.70;56.10;;;;;;5063213;28;20452;-47
2023/07/19 02:09:10;;;;;;;6.47;5.43;;;26.70;56.00;;;;;;5062364;28;20281;-47
2023/07/19 02:11:35;;;;;;;8.40;6.20;;;26.80;55.90;;;;;;5064552;28;20264;-48
2023/07/19 02:14:01;;;;;;;5.13;4.63;;;26.80;55.70;;;;;;5063844;28;20582;-48
2023/07/19 02:16:27;;;;;;;6.17;5.60;;;26.80;55.80;;;;;;5058548;28;20537;-49
2023/07/19 02:18:52;;;;;;;5.77;5.00;;;26.80;55.80;;;;;;5084048;28;20200;-47
2023/07/19 02:21:18;;;;;;;6.27;5.67;;;26.70;56.00;;;;;;5057694;28;20243;-47
2023/07/19 02:23:44;;;;;;;9.33;6.13;;;26.70;55.90;;;;;;5064548;28;20199;-47
2023/07/19 02:26:09;;;;;;;6.10;5.50;;;26.70;56.00;;;;;;5066488;28;20587;-50
2023/07/19 02:28:35;;;;;;;6.20;5.70;;;26.50;56.50;;;;;;5072820;28;20664;-49
2023/07/19 02:31:02;;;;;;;6.70;6.00;;;26.20;57.40;;;;;;5080856;28;20195;-47
2023/07/19 02:33:28;;;;;;;5.90;5.37;;;25.80;59.30;;;;;;5074421;28;20521;-48
2023/07/19 02:35:54;;;;;;;6.03;5.43;;;25.60;59.30;;;;;;5078347;28;20524;-47
2023/07/19 02:38:26;;;;;;;7.50;5.37;;;25.70;58.80;;;;;;5073229;28;20249;-47
2023/07/19 02:40:58;;;;;;;8.30;5.57;;;25.90;58.40;;;;;;5078472;28;20446;-49
2023/07/19 02:43:24;;;;;;;6.43;5.83;;;26.10;57.90;;;;;;5065331;28;20438;-48
2023/07/19 02:45:51;;;;;;;5.53;5.00;;;26.20;57.40;;;;;;5072499;28;20450;-50
2023/07/19 02:48:17;;;;;;;6.27;4.97;;;26.30;56.90;;;;;;5082660;28;20524;-48
2023/07/19 02:50:46;;;;;;;5.80;5.20;;;26.40;56.80;;;;;;5069569;28;20433;-50
2023/07/19 02:53:12;;;;;;;9.40;6.80;;;26.50;56.50;;;;;;5083291;28;20594;-47
2023/07/19 02:55:38;;;;;;;6.97;5.80;;;26.50;56.20;;;;;;5081193;28;20486;-48
2023/07/19 02:58:04;;;;;;;9.03;5.70;;;26.50;56.00;;;;;;5081007;28;20211;-48
2023/07/19 03:00:32;;;;;;;7.60;6.13;;;26.30;56.60;;;;;;5072807;28;20446;-49
2023/07/19 03:02:58;;;;;;;6.47;5.87;;;26.20;56.90;;;;;;5069035;28;20223;-49
2023/07/19 03:05:23;;;;;;;9.17;6.30;;;26.10;57.20;;;;;;5071201;28;20453;-50
2023/07/19 03:07:50;;;;;;;6.47;5.83;;;25.90;57.50;;;;;;5057664;28;20192;-51
2023/07/19 03:10:16;;;;;;;7.70;5.23;;;25.90;57.90;;;;;;5072981;28;20195;-49
2023/07/19 03:12:42;;;;;;;6.80;5.80;;;25.80;58.10;;;;;;5052972;28;20477;-49
2023/07/19 03:15:08;;;;;;;7.90;6.10;;;25.80;58.10;;;;;;5054629;28;21003;-53
2023/07/19 03:17:34;;;;;;;6.97;6.30;;;25.70;58.40;;;;;;5059196;28;20200;-49
2023/07/19 03:19:59;;;;;;;8.03;6.40;;;25.60;58.30;;;;;;5058139;28;20443;-49
2023/07/19 03:22:25;;;;;;;6.57;5.50;;;25.60;58.50;;;;;;5050838;28;20232;-48
2023/07/19 03:24:50;;;;;;;6.87;6.23;;;25.50;58.70;;;;;;5054533;28;20239;-50
2023/07/19 03:27:16;;;;;;;7.10;5.90;;;25.40;58.90;;;;;;5052108;28;20200;-48
2023/07/19 03:29:41;;;;;;;8.70;6.40;;;25.40;59.00;;;;;;5052152;28;20200;-47
2023/07/19 03:32:07;;;;;;;8.20;6.30;;;25.30;59.20;;;;;;5056725;28;20760;-47
2023/07/19 03:34:34;;;;;;;9.30;7.00;;;25.20;59.40;;;;;;5054932;28;20203;-47
2023/07/19 03:36:59;;;;;;;7.20;6.50;;;25.20;59.30;;;;;;5057098;28;20447;-48
2023/07/19 03:39:25;;;;;;;6.97;5.67;;;25.20;59.40;;;;;;5057993;28;20505;-47
2023/07/19 03:41:51;;;;;;;10.13;6.60;;;25.10;59.50;;;;;;5055437;28;20223;-52
2023/07/19 03:44:17;;;;;;;8.03;6.37;;;25.10;59.70;;;;;;5054172;28;20736;-48
2023/07/19 03:46:43;;;;;;;7.60;6.77;;;25.20;59.60;;;;;;5072395;28;20252;-48
2023/07/19 03:49:08;;;;;;;6.73;5.97;;;25.10;59.40;;;;;;5072527;28;20434;-49
2023/07/19 03:51:34;;;;;;;7.00;6.33;;;25.10;59.50;;;;;;5071602;28;20200;-48
2023/07/19 03:53:59;;;;;;;7.10;6.40;;;25.10;59.50;;;;;;5071142;28;20623;-48
2023/07/19 03:56:25;;;;;;;7.20;6.60;;;25.00;59.70;;;;;;5067317;28;20724;-48
2023/07/19 03:58:50;;;;;;;7.20;6.50;;;24.90;59.90;;;;;;5070451;28;20214;-48
2023/07/19 04:01:16;;;;;;;6.50;5.90;;;24.90;60.10;;;;;;5076885;28;20238;-50
2023/07/19 04:03:42;;;;;;;7.73;6.63;;;25.00;60.20;;;;;;5081937;28;20210;-49
2023/07/19 04:06:08;;;;;;;9.03;6.60;;;24.90;60.20;;;;;;5068752;28;20671;-50
2023/07/19 04:08:34;;;;;;;6.53;5.90;;;24.90;60.60;;;;;;5053897;28;20219;-48
2023/07/19 04:11:00;;;;;;;5.90;5.30;;;25.00;60.40;;;;;;5065411;28;20227;-50
2023/07/19 04:13:26;;;;;;;12.60;5.77;;;25.20;59.80;;;;;;5069149;28;20474;-49
2023/07/19 04:15:52;;;;;;;8.90;6.10;;;25.40;59.10;;;;;;5065204;28;20964;-48
2023/07/19 04:18:18;;;;;;;9.30;5.70;;;25.50;58.60;;;;;;5067540;28;20470;-49
2023/07/19 04:20:44;;;;;;;6.80;5.67;;;25.60;58.20;;;;;;5070849;28;20978;-49
2023/07/19 04:23:09;;;;;;;7.33;5.63;;;25.80;57.90;;;;;;5067446;28;20717;-47
2023/07/19 04:25:35;;;;;;;10.60;5.30;;;25.90;57.70;;;;;;5070981;28;20188;-49
2023/07/19 04:28:01;;;;;;;8.00;5.80;;;25.90;57.70;;;;;;5073777;28;20646;-48
2023/07/19 04:30:27;;;;;;;6.03;4.87;;;25.90;57.60;;;;;;5062593;28;20202;-50
2023/07/19 04:32:55;;;;;;;6.23;4.87;;;26.00;57.30;;;;;;5065108;28;20223;-47
2023/07/19 04:35:22;;;;;;;6.17;5.23;;;26.10;56.50;;;;;;5066333;28;20266;-50
2023/07/19 04:37:49;;;;;;;5.40;4.90;;;26.20;56.20;;;;;;5074634;28;20500;-49
2023/07/19 04:40:16;;;;;;;7.30;5.43;;;26.30;55.90;;;;;;5054353;28;20451;-47
2023/07/19 04:42:42;;;;;;;7.40;5.00;;;26.40;55.70;;;;;;5064463;28;20485;-48
2023/07/19 04:45:08;;;;;;;6.10;5.50;;;26.40;55.80;;;;;;5066523;28;20511;-50
2023/07/19 04:47:35;;;;;;;6.30;5.70;;;26.50;55.30;;;;;;5070043;28;20492;-49
2023/07/19 04:50:00;;;;;;;5.77;5.10;;;26.60;55.20;;;;;;5058188;28;20455;-52
2023/07/19 04:52:26;;;;;;;5.80;5.30;;;26.70;54.90;;;;;;5069361;28;20474;-52
2023/07/19 04:54:51;;;;;;;6.07;5.40;;;26.80;54.70;;;;;;5069915;28;20211;-50
2023/07/19 04:57:17;;;;;;;5.70;5.03;;;26.80;54.60;;;;;;5069811;28;20188;-50
2023/07/19 04:59:43;;;;;;;5.80;5.10;;;26.80;54.60;;;;;;5070916;28;20643;-52
2023/07/19 05:02:08;;;;;;;6.77;6.10;;;26.80;54.50;;;;;;5071436;28;20618;-50
2023/07/19 05:04:34;;;;;;;4.80;4.40;;;26.70;54.90;;;;;;5070969;28;20443;-49
2023/07/19 05:07:00;;;;;;;5.87;5.30;;;26.70;55.00;;;;;;5061825;28;20201;-49
2023/07/19 05:09:25;;;;;;;6.67;5.97;;;26.80;54.70;;;;;;5071107;28;20180;-51
2023/07/19 05:11:51;;;;;;;6.30;5.60;;;26.80;54.70;;;;;;5070349;28;20623;-51
2023/07/19 05:14:17;;;;;;;6.10;5.50;;;26.80;54.90;;;;;;5069551;28;20325;-51
2023/07/19 05:16:43;;;;;;;5.50;5.00;;;26.80;54.70;;;;;;5070857;28;20203;-51
2023/07/19 05:19:08;;;;;;;5.53;4.80;;;26.90;54.60;;;;;;5068876;28;20438;-52
2023/07/19 05:21:34;;;;;;;6.10;5.60;;;26.70;55.40;;;;;;5066238;28;20224;-48
2023/07/19 05:24:01;;;;;;;6.00;5.40;;;26.50;56.90;;;;;;5066539;28;20207;-52
2023/07/19 05:26:27;;;;;;;5.87;5.27;;;26.50;55.80;;;;;;5069312;28;20534;-49
2023/07/19 05:28:52;;;;;;;6.30;5.70;;;26.60;56.00;;;;;;5075299;28;20647;-49
2023/07/19 05:31:18;;;;;;;5.63;5.13;;;26.70;55.60;;;;;;5074624;28;20188;-51
2023/07/19 05:33:43;;;;;;;6.00;4.63;;;26.70;55.40;;;;;;5066999;28;20192;-51
2023/07/19 05:36:09;;;;;;;6.47;5.13;;;26.80;55.20;;;;;;5072633;28;20187;-49
2023/07/19 05:38:35;;;;;;;6.57;5.90;;;26.90;54.90;;;;;;5081886;28;20358;-47
2023/07/19 05:41:06;;;;;;;6.80;6.20;;;26.90;55.40;;;;;;5062045;28;20263;-50
2023/07/19 05:43:32;;;;;;;8.80;5.30;;;26.60;56.50;;;;;;5085435;28;20197;-51
2023/07/19 05:46:05;;;;;;;8.33;5.80;;;26.60;56.60;;;;;;5073213;28;20466;-50
2023/07/19 05:48:30;;;;;;;7.37;6.10;;;26.50;57.00;;;;;;5073627;28;21007;-50
2023/07/19 05:50:56;;;;;;;7.20;5.63;;;26.60;56.40;;;;;;5071645;28;20454;-49
2023/07/19 05:53:22;;;;;;;6.73;6.13;;;26.70;55.80;;;;;;5069482;28;21797;-53
2023/07/19 05:55:47;;;;;;;6.87;6.20;;;26.90;55.50;;;;;;5078390;28;20191;-48
2023/07/19 05:58:13;;;;;;;6.63;6.03;;;27.00;55.50;;;;;;5082455;28;20271;-48
2023/07/19 06:00:40;;;;;;;7.40;6.70;;;27.10;55.60;;;;;;5071590;28;20601;-49
2023/07/19 06:03:05;;;;;;;6.67;5.17;;;26.90;56.50;;;;;;5059681;28;20319;-48
2023/07/19 06:05:32;;;;;;;6.27;5.67;;;26.80;56.70;;;;;;5057564;28;20533;-50
2023/07/19 06:07:57;;;;;;;7.00;6.40;;;26.80;56.90;;;;;;5065797;28;20188;-48
2023/07/19 06:10:23;;;;;;;5.70;5.20;;;26.80;57.10;;;;;;5071762;28;20818;-48
2023/07/19 06:12:50;;;;;;;6.83;5.93;;;26.90;56.50;;;;;;5071067;28;20224;-51
2023/07/19 06:15:15;;;;;;;6.50;5.93;;;27.00;56.60;;;;;;5067727;28;20270;-51
2023/07/19 06:17:41;;;;;;;6.13;5.57;;;27.00;56.30;;;;;;5077237;28;20540;-49
2023/07/19 06:20:10;;;;;;;6.57;5.97;;;27.10;56.10;;;;;;5075987;28;20191;-52
2023/07/19 06:22:36;;;;;;;6.60;6.00;;;27.20;56.00;;;;;;5078800;28;20513;-47
2023/07/19 06:25:01;;;;;;;6.50;5.60;;;27.10;56.50;;;;;;5078512;28;20475;-49
2023/07/19 06:27:27;;;;;;;9.90;6.87;;;27.20;56.60;;;;;;5074815;28;20257;-49
2023/07/19 06:29:52;;;;;;;5.63;5.13;;;27.30;56.60;;;;;;5071908;28;20287;-50
2023/07/19 06:32:18;;;;;;;5.90;5.30;;;27.50;56.30;;;;;;5072030;28;20583;-49
2023/07/19 06:34:44;;;;;;;6.90;5.87;;;27.50;55.70;;;;;;5080171;28;20202;-51
2023/07/19 06:37:09;;;;;;;9.07;6.47;;;27.60;55.60;;;;;;5055412;28;20203;-48
2023/07/19 06:39:35;;;;;;;6.57;5.97;;;27.40;55.80;;;;;;5069196;28;20203;-51
2023/07/19 06:42:01;;;;;;;6.47;5.20;;;27.10;56.80;;;;;;5072468;28;20215;-47
2023/07/19 06:44:26;;;;;;;8.53;6.20;;;26.80;57.20;;;;;;5073073;28;20287;-51
2023/07/19 06:46:52;;;;;;;7.53;6.23;;;26.80;58.20;;;;;;5069061;28;20253;-53
2023/07/19 06:49:19;;;;;;;7.17;5.90;;;27.00;58.40;;;;;;5067669;28;20188;-49
2023/07/19 06:51:44;;;;;;;8.37;6.80;;;27.10;57.90;;;;;;5075899;28;20929;-50
2023/07/19 06:54:10;;;;;;;7.63;5.83;;;27.10;57.70;;;;;;5068222;28;20443;-51
2023/07/19 06:56:35;;;;;;;7.17;5.90;;;27.10;57.80;;;;;;5070400;28;20185;-52
2023/07/19 06:59:01;;;;;;;6.30;5.67;;;27.10;56.70;;;;;;5082095;28;20566;-52
2023/07/19 07:01:27;;;;;;;10.60;6.10;;;27.10;56.90;;;;;;5081734;28;20694;-51
2023/07/19 07:03:53;;;;;;;7.63;6.10;;;27.10;56.80;;;;;;5081294;28;20198;-48
2023/07/19 07:06:18;;;;;;;6.20;5.60;;;27.20;57.20;;;;;;5067720;28;20240;-49
2023/07/19 07:08:44;;;;;;;9.80;6.50;;;27.40;56.40;;;;;;5062308;28;20236;-49
2023/07/19 07:11:10;;;;;;;6.43;5.50;;;27.20;56.10;;;;;;5065426;28;20552;-48
2023/07/19 07:13:35;;;;;;;7.90;6.03;;;27.40;55.30;;;;;;5061781;28;20478;-48
2023/07/19 07:16:02;;;;;;;10.67;6.07;;;27.60;55.30;;;;;;5077178;28;20210;-50
2023/07/19 07:18:28;;;;;;;7.53;5.67;;;27.30;54.60;;;;;;5072368;28;20204;-49
2023/07/19 07:20:54;;;;;;;10.60;5.70;;;27.40;56.30;;;;;;5075150;28;20491;-47
2023/07/19 07:23:19;;;;;;;6.70;6.00;;;27.80;54.70;;;;;;5064991;28;20250;-47
2023/07/19 07:25:45;;;;;;;6.17;5.57;;;28.10;54.30;;;;;;5065468;28;20610;-47
2023/07/19 07:28:11;;;;;;;6.07;4.60;;;27.90;52.70;;;;;;5072799;28;20241;-47
2023/07/19 07:30:37;;;;;;;7.03;5.57;;;27.90;53.70;;;;;;5072341;28;20426;-49
2023/07/19 07:33:04;;;;;;;6.23;5.37;;;28.30;52.90;;;;;;5072654;28;20188;-49
2023/07/19 07:35:30;;;;;;;6.00;5.37;;;28.70;51.50;;;;;;5066999;28;20549;-48
2023/07/19 07:37:55;;;;;;;10.13;6.03;;;28.90;51.50;;;;;;5072583;28;20510;-51
2023/07/19 07:40:22;;;;;;;8.40;4.93;;;29.20;50.20;;;;;;5064994;28;20188;-48
2023/07/19 07:42:47;;;;;;;5.93;5.20;;;29.40;49.90;;;;;;5072396;28;20257;-50
2023/07/19 07:45:13;;;;;;;6.40;4.70;;;29.30;49.70;;;;;;5080356;28;20450;-50
2023/07/19 07:47:38;;;;;;;5.83;5.20;;;29.60;49.80;;;;;;5071220;28;20192;-50
2023/07/19 07:50:08;;;;;;;6.30;5.00;;;29.90;48.60;;;;;;5070815;28;20192;-47
2023/07/19 07:52:34;;;;;;;6.03;4.93;;;29.80;48.00;;;;;;5072652;28;20493;-48
2023/07/19 07:54:59;;;;;;;8.50;5.03;;;29.80;47.90;;;;;;5072962;28;20798;-47
2023/07/19 07:57:25;;;;;;;8.93;5.20;;;29.80;47.80;;;;;;5061612;28;20431;-49
2023/07/19 07:59:51;;;;;;;15.20;4.70;;;29.40;48.20;;;;;;5074648;28;20279;-47
2023/07/19 08:02:17;;;;;;;9.80;5.90;;;29.60;48.00;;;;;;5070569;28;20692;-49
2023/07/19 08:04:42;;;;;;;6.57;5.00;;;29.90;47.50;;;;;;5072894;28;20188;-51
2023/07/19 08:07:08;;;;;;;6.97;4.70;;;30.30;46.40;;;;;;5069864;28;20219;-50
2023/07/19 08:09:34;;;;;;;9.10;5.20;;;30.30;45.60;;;;;;5071466;28;20190;-49
2023/07/19 08:12:00;;;;;;;6.63;4.90;;;30.20;46.20;;;;;;5071420;28;20192;-49
2023/07/19 08:14:25;;;;;;;9.77;4.87;;;30.50;45.70;;;;;;5070315;28;20461;-51
2023/07/19 08:16:53;;;;;;;6.73;5.10;;;30.70;45.30;;;;;;5070632;28;20238;-50
2023/07/19 08:19:19;;;;;;;8.63;5.13;;;31.00;45.00;;;;;;5069196;28;20275;-50
2023/07/19 08:21:45;;;;;;;5.47;4.97;;;31.20;43.60;;;;;;5071212;28;20564;-50
2023/07/19 08:24:11;;;;;;;6.07;4.77;;;31.40;43.90;;;;;;5071853;28;20206;-47
2023/07/19 08:26:37;;;;;;;5.40;4.83;;;31.50;42.60;;;;;;5065241;28;20254;-51
2023/07/19 08:29:03;;;;;;;7.53;5.40;;;31.70;42.30;;;;;;5068579;28;20835;-52
2023/07/19 08:31:28;;;;;;;7.10;5.23;;;31.90;43.10;;;;;;5066083;28;20433;-47
2023/07/19 08:33:54;;;;;;;5.87;4.83;;;32.00;42.80;;;;;;5058043;28;20202;-48
2023/07/19 08:36:19;;;;;;;6.00;4.43;;;32.30;40.80;;;;;;5066971;28;20188;-48
2023/07/19 08:38:46;;;;;;;6.27;4.70;;;32.40;41.30;;;;;;5065905;28;20183;-50
2023/07/19 08:41:12;;;;;;;5.93;4.50;;;32.30;40.10;;;;;;5056753;28;20242;-49
2023/07/19 08:43:38;;;;;;;6.43;4.77;;;32.10;40.00;;;;;;5059928;28;20495;-48
2023/07/19 08:46:04;;;;;;;5.73;4.00;;;32.20;39.00;;;;;;5068318;28;20454;-49
2023/07/19 08:48:36;;;;;;;5.67;4.40;;;32.40;39.40;;;;;;5068049;28;20241;-48
2023/07/19 08:51:02;;;;;;;7.20;4.23;;;32.60;39.70;;;;;;5077675;28;20454;-49
2023/07/19 08:53:28;;;;;;;4.83;4.43;;;32.80;40.20;;;;;;5078829;28;21894;-47
2023/07/19 08:55:54;;;;;;;6.10;3.83;;;32.90;39.40;;;;;;5074378;28;20426;-47
2023/07/19 08:58:20;;;;;;;5.53;3.50;;;33.00;38.10;;;;;;5054253;28;20226;-48
2023/07/19 09:00:47;;;;;;;3.77;3.30;;;33.20;37.90;;;;;;5061811;28;20488;-49
2023/07/19 09:03:14;;;;;;;3.97;2.57;;;33.20;34.00;;;;;;5051233;28;20231;-52
2023/07/19 09:05:40;;;;;;;3.57;2.70;;;33.30;32.80;;;;;;5066463;28;20446;-48
2023/07/19 09:08:09;;;;;;;3.93;2.63;;;33.30;33.00;;;;;;5068294;28;20464;-48
2023/07/19 09:10:35;;;;;;;6.17;3.13;;;33.40;31.60;;;;;;5078075;28;20472;-49
2023/07/19 09:13:05;;;;;;;2.60;2.40;;;33.30;30.60;;;;;;5064630;28;20477;-51
2023/07/19 09:15:33;;;;;;;4.10;2.90;;;33.20;30.90;;;;;;5071456;28;20441;-49
2023/07/19 09:18:02;;;;;;;4.50;2.70;;;33.40;30.20;;;;;;5071663;28;20441;-52
2023/07/19 09:20:28;;;;;;;5.10;2.40;;;33.50;30.20;;;;;;5065666;28;20422;-50
2023/07/19 09:22:56;;;;;;;3.73;2.57;;;33.70;30.00;;;;;;5062098;28;20493;-49
2023/07/19 09:25:21;;;;;;;6.47;2.60;;;33.90;30.30;;;;;;5073237;28;20967;-51
2023/07/19 09:27:47;;;;;;;3.87;2.40;;;34.10;29.50;;;;;;5074529;28;20443;-49
2023/07/19 09:30:13;;;;;;;2.23;2.13;;;34.10;29.30;;;;;;5075325;28;20184;-48
2023/07/19 09:32:39;;;;;;;5.20;2.70;;;34.20;29.40;;;;;;5065448;28;20195;-48
2023/07/19 09:35:07;;;;;;;4.00;2.60;;;34.40;28.80;;;;;;5052356;28;20486;-50
2023/07/19 09:37:33;;;;;;;5.33;2.80;;;34.20;28.40;;;;;;5071114;28;20200;-48
2023/07/19 09:40:02;;;;;;;3.37;2.50;;;34.30;28.60;;;;;;5064187;28;20984;-49
2023/07/19 09:42:30;;;;;;;5.33;3.00;;;34.30;28.00;;;;;;5070852;28;20541;-48
2023/07/19 09:44:57;;;;;;;2.53;2.30;;;34.50;28.50;;;;;;5068191;28;21059;-50
2023/07/19 09:47:24;;;;;;;3.70;2.63;;;34.70;28.80;;;;;;5074524;28;20488;-50
2023/07/19 09:49:50;;;;;;;3.03;2.63;;;35.00;28.80;;;;;;5066078;28;20450;-51
2023/07/19 09:52:19;;;;;;;3.30;3.00;;;35.00;27.20;;;;;;5065634;28;20442;-48
2023/07/19 09:54:45;;;;;;;4.60;2.80;;;35.10;26.30;;;;;;5067150;28;20835;-53
2023/07/19 09:57:11;;;;;;;6.73;2.83;;;35.10;26.70;;;;;;5070881;28;21027;-48
2023/07/19 09:59:50;;;;;;;3.07;2.77;;;35.20;26.80;;;;;;5077859;28;20460;-50
2023/07/19 10:02:15;;;;;;;4.50;2.50;;;35.10;27.00;;;;;;5063141;28;20883;-48
2023/07/19 10:04:44;;;;;;;5.13;2.90;;;35.20;27.50;;;;;;5073112;28;20475;-52
2023/07/19 10:07:25;;;;;;;3.27;2.77;;;35.40;27.90;;;;;;5073392;28;20184;-49
2023/07/19 10:10:01;;;;;;;2.43;2.23;;;35.60;26.10;;;;;;5079401;28;20922;-49
2023/07/19 10:12:27;;;;;;;2.83;2.63;;;35.70;25.50;;;;;;5072524;28;20482;-49
2023/07/19 10:15:05;;;;;;;57.00;45.43;;;35.70;25.20;;;;;;5081545;28;20449;-50
2023/07/19 10:17:58;;;;;;;6.37;5.30;;;35.80;25.10;;;;;;5073731;28;20796;-51
2023/07/19 10:20:35;;;;;;;2.87;2.67;;;36.00;25.00;;;;;;5079625;28;20544;-49
2023/07/19 10:23:06;;;;;;;2.33;1.93;;;35.70;24.20;;;;;;5071132;28;20538;-50
2023/07/19 10:25:37;;;;;;;2.20;2.07;;;35.80;24.70;;;;;;5078417;28;20436;-52
2023/07/19 10:28:02;;;;;;;5.27;2.80;;;35.70;24.60;;;;;;5078284;28;20443;-51
2023/07/19 10:30:46;;;;;;;5.67;2.97;;;35.80;24.80;;;;;;5077011;28;20956;-53
2023/07/19 10:33:12;;;;;;;5.30;2.30;;;35.90;24.90;;;;;;5086201;28;20654;-49
2023/07/19 10:35:39;;;;;;;3.53;2.60;;;36.00;24.90;;;;;;5068095;28;20511;-53
2023/07/19 10:38:05;;;;;;;3.13;2.10;;;36.30;24.50;;;;;;5061166;28;20484;-50
2023/07/19 10:40:30;;;;;;;2.07;1.97;;;36.50;24.10;;;;;;5078562;28;20464;-49
2023/07/19 10:42:56;;;;;;;2.00;1.80;;;36.00;24.40;;;;;;5080160;28;20247;-49
2023/07/19 10:45:25;;;;;;;2.60;2.30;;;36.00;25.10;;;;;;5075500;28;20230;-51
2023/07/19 10:47:51;;;;;;;7.00;2.40;;;35.90;24.40;;;;;;5073508;28;20563;-50
2023/07/19 10:50:17;;;;;;;4.30;2.43;;;35.80;25.10;;;;;;5073582;28;20442;-49
2023/07/19 10:52:46;;;;;;;3.50;2.40;;;36.10;24.50;;;;;;5066960;28;20441;-49
2023/07/19 10:55:13;;;;;;;4.00;2.67;;;36.20;24.50;;;;;;5078462;28;20183;-50
2023/07/19 10:57:39;;;;;;;3.07;2.37;;;36.60;25.20;;;;;;5084571;28;20828;-51
2023/07/19 11:00:10;;;;;;;2.27;2.07;;;36.70;25.10;;;;;;5078148;28;20501;-50
2023/07/19 11:02:36;;;;;;;3.30;2.30;;;36.90;25.10;;;;;;5068204;28;21413;-51
2023/07/19 11:05:02;;;;;;;2.63;2.10;;;37.10;24.40;;;;;;5063613;28;20501;-51
2023/07/19 11:07:31;;;;;;;2.30;2.10;;;37.40;24.50;;;;;;5075138;28;20215;-52
2023/07/19 11:09:57;;;;;;;4.83;2.40;;;37.40;24.20;;;;;;5070998;28;20264;-51
2023/07/19 11:12:22;;;;;;;3.70;2.30;;;37.60;24.40;;;;;;5080365;28;20473;-51
2023/07/19 11:14:58;;;;;;;3.57;2.43;;;37.60;23.70;;;;;;5068968;28;20195;-50
2023/07/19 11:17:29;;;;;;;2.70;2.50;;;37.60;23.30;;;;;;5072997;28;20269;-47
2023/07/19 11:19:55;;;;;;;2.87;2.30;;;37.50;24.10;;;;;;5067998;28;20504;-50
2023/07/19 11:22:23;;;;;;;2.20;2.00;;;37.50;24.10;;;;;;5079989;28;20486;-48
2023/07/19 11:24:49;;;;;;;2.50;2.30;;;37.40;23.80;;;;;;5071663;28;20432;-48
2023/07/19 11:27:17;;;;;;;2.90;2.20;;;37.40;24.30;;;;;;5072046;28;20429;-49
2023/07/19 11:29:47;;;;;;;3.03;2.47;;;37.30;23.80;;;;;;5077429;28;20443;-47
2023/07/19 11:32:21;;;;;;;4.70;2.33;;;37.10;24.10;;;;;;5073556;28;20466;-47
2023/07/19 11:34:52;;;;;;;3.27;2.23;;;37.10;24.70;;;;;;5076290;28;20458;-50
2023/07/19 11:37:26;;;;;;;2.40;2.20;;;37.00;25.50;;;;;;5069800;28;20433;-51
2023/07/19 11:39:52;;;;;;;3.30;2.23;;;37.00;24.50;;;;;;5071884;28;20430;-51
2023/07/19 11:42:40;;;;;;;3.00;2.17;;;36.60;24.10;;;;;;5074967;28;20568;-49
2023/07/19 11:45:17;;;;;;;3.30;2.50;;;36.20;24.70;;;;;;5072450;28;20460;-50
2023/07/19 11:47:45;;;;;;;3.80;2.30;;;36.20;25.40;;;;;;5066853;28;20485;-50
2023/07/19 11:50:12;;;;;;;3.93;2.20;;;36.30;24.90;;;;;;5065022;28;20434;-48
2023/07/19 11:52:54;;;;;;;3.77;2.27;;;36.20;25.20;;;;;;5072984;28;20450;-51
2023/07/19 11:55:20;;;;;;;4.10;2.30;;;36.30;25.80;;;;;;5067295;28;20451;-51
2023/07/19 11:57:51;;;;;;;5.10;2.70;;;35.90;26.30;;;;;;5068342;28;20522;-48
2023/07/19 12:00:18;;;;;;;3.53;2.30;;;35.80;26.00;;;;;;5070738;28;20452;-51
2023/07/19 12:02:45;;;;;;;2.80;2.27;;;35.40;25.70;;;;;;5074845;28;20481;-52
2023/07/19 12:05:16;;;;;;;3.00;2.30;;;35.50;26.50;;;;;;5064456;28;20444;-52
2023/07/19 12:07:42;;;;;;;3.30;2.47;;;35.40;26.40;;;;;;5076889;28;20814;-48
2023/07/19 12:10:08;;;;;;;4.67;2.50;;;35.20;26.30;;;;;;5082303;28;20450;-52
2023/07/19 12:12:34;;;;;;;5.97;2.87;;;35.30;26.20;;;;;;5057780;28;20479;-53
2023/07/19 12:15:04;;;;;;;5.77;2.37;;;35.20;26.40;;;;;;5072475;28;20204;-51
2023/07/19 12:17:30;;;;;;;5.80;2.77;;;35.30;26.70;;;;;;5062168;28;20438;-49
2023/07/19 12:19:55;;;;;;;3.03;2.30;;;35.40;26.30;;;;;;5070107;28;20437;-49
2023/07/19 12:22:21;;;;;;;4.73;2.67;;;35.40;25.90;;;;;;5065328;28;20624;-49
2023/07/19 12:24:47;;;;;;;7.90;3.13;;;35.50;26.10;;;;;;5067176;28;20946;-52
2023/07/19 12:27:15;;;;;;;4.50;2.63;;;35.50;26.10;;;;;;5064510;28;20292;-48
2023/07/19 12:29:41;;;;;;;3.90;2.40;;;35.60;25.80;;;;;;5072001;28;20451;-49
2023/07/19 12:32:07;;;;;;;3.53;2.33;;;35.60;25.40;;;;;;5075442;28;20446;-49
2023/07/19 12:34:33;;;;;;;6.73;2.50;;;35.60;25.60;;;;;;5074060;28;20223;-52
2023/07/19 12:36:59;;;;;;;4.00;2.60;;;35.80;26.10;;;;;;5071342;28;20493;-50
2023/07/19 12:39:24;;;;;;;5.77;2.90;;;35.90;25.30;;;;;;5080178;28;20199;-50
2023/07/19 12:41:52;;;;;;;5.40;2.93;;;36.00;25.50;;;;;;5072715;28;20289;-48